Time;durP1;ratioP1;P1;durP2;ratioP2;P2;SDS_P1;SDS_P2;PMS_P1;PMS_P2;Temp;Humidity;BMP_temperature;BMP_pressure;BME280_temperature;BME280_humidity;BME280_pressure;Samples;Min_cycle;Max_cycle;Signal;HPM_P1;HPM_P2
2022/06/08 00:01:38;;;;;;;16.13;14.67;;;18.50;99.90;;;;;;5113705;28;20413;-70
2022/06/08 00:04:06;;;;;;;15.87;14.27;;;18.50;99.90;;;;;;5112988;28;20393;-70
2022/06/08 00:06:31;;;;;;;16.57;15.17;;;18.50;99.90;;;;;;5113815;28;20410;-70
2022/06/08 00:08:57;;;;;;;17.43;15.83;;;18.50;99.90;;;;;;5113182;28;20556;-70
2022/06/08 00:11:23;;;;;;;16.97;15.37;;;18.60;99.90;;;;;;5112109;28;20453;-70
2022/06/08 00:13:50;;;;;;;17.97;16.27;;;18.50;99.90;;;;;;5112869;28;20194;-70
2022/06/08 00:16:16;;;;;;;18.10;16.40;;;18.50;99.90;;;;;;5113696;28;20504;-70
2022/06/08 00:18:43;;;;;;;16.47;14.87;;;18.60;99.90;;;;;;5113192;28;20991;-70
2022/06/08 00:21:09;;;;;;;17.20;15.60;;;18.60;99.90;;;;;;5113391;28;20188;-70
2022/06/08 00:23:36;;;;;;;16.43;14.90;;;18.60;99.90;;;;;;5113386;28;20451;-70
2022/06/08 00:26:02;;;;;;;17.33;15.73;;;18.50;99.90;;;;;;5112435;28;20912;-70
2022/06/08 00:28:28;;;;;;;17.90;16.20;;;18.60;99.90;;;;;;5113226;28;20430;-70
2022/06/08 00:30:53;;;;;;;17.67;15.97;;;18.50;99.90;;;;;;5112420;28;20409;-70
2022/06/08 00:33:19;;;;;;;16.97;15.37;;;18.50;99.90;;;;;;5113204;28;20233;-70
2022/06/08 00:35:45;;;;;;;16.73;15.23;;;18.50;99.90;;;;;;5112631;28;20172;-71
2022/06/08 00:38:10;;;;;;;17.50;15.87;;;18.50;99.90;;;;;;5113145;28;20168;-70
2022/06/08 00:41:03;;;;;;;18.17;16.57;;;18.50;99.90;;;;;;5113191;28;20294;-70
2022/06/08 00:43:29;;;;;;;17.53;15.80;;;18.50;99.90;;;;;;5113295;28;20156;-70
2022/06/08 00:45:56;;;;;;;17.50;15.90;;;18.50;99.90;;;;;;5111295;28;20425;-70
2022/06/08 00:48:24;;;;;;;18.37;16.57;;;18.50;99.90;;;;;;5113017;28;20405;-70
2022/06/08 00:50:53;;;;;;;17.80;16.10;;;18.50;99.90;;;;;;5112643;28;20454;-70
2022/06/08 00:53:32;;;;;;;17.57;15.87;;;18.50;99.90;;;;;;5113217;28;20534;-70
2022/06/08 00:56:01;;;;;;;19.30;17.50;;;18.50;99.90;;;;;;5112437;28;20390;-70
2022/06/08 00:58:29;;;;;;;18.17;16.47;;;18.50;99.90;;;;;;5113248;28;20441;-70
2022/06/08 01:00:58;;;;;;;18.27;16.67;;;18.50;99.90;;;;;;5110842;28;20448;-70
2022/06/08 01:03:26;;;;;;;19.03;17.33;;;18.50;99.90;;;;;;5112041;28;20418;-70
2022/06/08 01:06:04;;;;;;;19.80;17.90;;;18.40;99.90;;;;;;5112320;28;20708;-70
2022/06/08 01:08:42;;;;;;;17.83;16.13;;;18.40;99.90;;;;;;5111569;28;20478;-70
2022/06/08 01:11:16;;;;;;;17.70;16.00;;;18.40;99.90;;;;;;5110991;28;20421;-70
2022/06/08 01:13:42;;;;;;;18.83;16.93;;;18.40;99.90;;;;;;5112922;28;20398;-70
2022/06/08 01:16:10;;;;;;;19.77;17.90;;;18.40;99.90;;;;;;5112273;28;20401;-70
2022/06/08 01:18:36;;;;;;;19.37;17.50;;;18.40;99.90;;;;;;5112358;28;20460;-70
2022/06/08 01:21:22;;;;;;;18.43;16.70;;;18.40;99.90;;;;;;5110868;28;20825;-70
2022/06/08 01:23:56;;;;;;;20.20;18.03;;;18.30;99.90;;;;;;5111766;28;20448;-71
2022/06/08 01:26:48;;;;;;;19.80;17.90;;;18.30;99.90;;;;;;5112784;28;20389;-70
2022/06/08 01:29:31;;;;;;;18.40;16.70;;;18.30;99.90;;;;;;5111328;28;20492;-70
2022/06/08 01:32:18;;;;;;;18.40;16.50;;;18.30;99.90;;;;;;5112438;28;20948;-70
2022/06/08 01:35:06;;;;;;;19.97;17.87;;;18.30;99.90;;;;;;5112765;28;20393;-70
2022/06/08 01:38:02;;;;;;;17.77;16.07;;;18.20;99.90;;;;;;5112579;28;20420;-70
2022/06/08 01:40:55;;;;;;;18.57;16.80;;;18.20;99.90;;;;;;5112593;28;20480;-70
2022/06/08 01:43:36;;;;;;;18.50;16.70;;;18.20;99.90;;;;;;5113380;28;20423;-70
2022/06/08 01:46:24;;;;;;;17.80;16.03;;;18.20;99.90;;;;;;5115934;28;20450;-70
2022/06/08 01:49:15;;;;;;;18.60;16.90;;;18.20;99.90;;;;;;5114245;28;20466;-71
2022/06/08 01:52:13;;;;;;;18.23;16.40;;;18.20;99.90;;;;;;5116154;28;20750;-70
2022/06/08 01:55:03;;;;;;;18.97;17.07;;;18.10;99.90;;;;;;5116363;28;20462;-70
2022/06/08 01:58:05;;;;;;;18.73;16.60;;;18.00;99.90;;;;;;5116144;28;20443;-70
2022/06/08 02:01:01;;;;;;;19.13;17.10;;;18.00;99.90;;;;;;5115589;28;20544;-70
2022/06/08 02:03:37;;;;;;;19.10;17.20;;;18.00;99.90;;;;;;5115935;28;20405;-70
2022/06/08 02:06:23;;;;;;;17.73;16.00;;;18.00;99.90;;;;;;5115191;28;20411;-70
2022/06/08 02:09:04;;;;;;;15.30;13.90;;;18.00;99.90;;;;;;5114513;28;20381;-75
2022/06/08 02:11:44;;;;;;;17.07;15.30;;;17.90;99.90;;;;;;5115706;28;20857;-70
2022/06/08 02:14:15;;;;;;;19.77;13.90;;;17.90;99.90;;;;;;5115437;28;20551;-71
2022/06/08 02:16:54;;;;;;;16.20;14.50;;;17.80;99.90;;;;;;5115643;28;20393;-71
2022/06/08 02:19:27;;;;;;;17.20;15.50;;;17.80;99.90;;;;;;5114063;28;20465;-71
2022/06/08 02:21:57;;;;;;;16.80;15.10;;;17.80;99.90;;;;;;5115067;28;20844;-71
2022/06/08 02:24:45;;;;;;;16.87;15.27;;;17.70;99.90;;;;;;5115735;28;20445;-71
2022/06/08 02:27:29;;;;;;;16.87;15.17;;;17.80;99.90;;;;;;5114595;28;20413;-71
2022/06/08 02:30:32;;;;;;;16.33;14.73;;;17.70;99.90;;;;;;5114831;27;20406;-71
2022/06/08 02:35:58;;;;;;;17.70;15.77;;;17.70;99.90;;;;;;5114442;28;20484;-71
2022/06/08 02:38:31;;;;;;;18.43;16.47;;;17.70;99.90;;;;;;5114897;28;20924;-71
2022/06/08 02:40:59;;;;;;;15.93;14.23;;;17.70;99.90;;;;;;5114465;28;20441;-71
2022/06/08 02:43:39;;;;;;;16.40;14.70;;;17.60;99.90;;;;;;5115455;28;20429;-70
2022/06/08 02:46:40;;;;;;;16.50;14.80;;;17.60;99.90;;;;;;5114857;28;20721;-71
2022/06/08 02:49:07;;;;;;;16.53;14.83;;;17.60;99.90;;;;;;5094040;28;20421;-71
2022/06/08 02:51:33;;;;;;;19.33;17.03;;;17.50;99.90;;;;;;5113652;28;20936;-70
2022/06/08 02:54:04;;;;;;;16.57;14.90;;;17.50;99.90;;;;;;5114210;28;20405;-71
2022/06/08 02:57:07;;;;;;;17.13;15.47;;;17.50;99.90;;;;;;5114711;28;20418;-71
2022/06/08 03:00:03;;;;;;;16.00;14.47;;;17.40;99.90;;;;;;5113767;28;20409;-71
2022/06/08 03:02:44;;;;;;;19.50;17.53;;;17.40;99.90;;;;;;5114860;28;20406;-71
2022/06/08 03:05:26;;;;;;;18.27;16.47;;;17.30;99.90;;;;;;5113850;28;20746;-71
2022/06/08 03:08:08;;;;;;;17.70;15.90;;;17.30;99.90;;;;;;5114667;28;20425;-70
2022/06/08 03:10:40;;;;;;;17.50;15.90;;;17.30;99.90;;;;;;5113449;28;20398;-71
2022/06/08 03:13:11;;;;;;;17.80;15.83;;;17.30;99.90;;;;;;5114031;28;20397;-71
2022/06/08 03:15:39;;;;;;;16.10;14.60;;;17.20;99.90;;;;;;5114635;28;20446;-71
2022/06/08 03:18:05;;;;;;;16.93;15.23;;;17.20;99.90;;;;;;5112470;28;20410;-71
2022/06/08 03:20:31;;;;;;;16.77;15.07;;;17.20;99.90;;;;;;5114477;28;20465;-71
2022/06/08 03:22:57;;;;;;;17.40;15.80;;;17.20;99.90;;;;;;5112256;28;20964;-71
2022/06/08 03:25:23;;;;;;;15.90;14.50;;;17.20;99.90;;;;;;5114265;28;20429;-71
2022/06/08 03:27:49;;;;;;;18.57;16.37;;;17.20;99.90;;;;;;5114158;28;20507;-71
2022/06/08 03:30:16;;;;;;;19.93;17.60;;;17.10;99.90;;;;;;5113603;28;20516;-70
2022/06/08 03:32:42;;;;;;;19.30;17.50;;;17.10;99.90;;;;;;5114079;28;20409;-70
2022/06/08 03:35:09;;;;;;;18.57;16.73;;;17.10;99.90;;;;;;5113548;28;20823;-71
2022/06/08 03:37:35;;;;;;;18.13;16.43;;;17.10;99.90;;;;;;5114281;28;20449;-71
2022/06/08 03:40:01;;;;;;;19.10;17.30;;;17.10;99.90;;;;;;5113399;28;20485;-70
2022/06/08 03:42:27;;;;;;;16.97;15.43;;;17.10;99.90;;;;;;5113970;28;20481;-70
2022/06/08 03:44:53;;;;;;;18.57;16.83;;;17.10;99.90;;;;;;5113949;28;20504;-70
2022/06/08 03:47:26;;;;;;;17.37;15.57;;;17.10;99.90;;;;;;5113345;28;20235;-70
2022/06/08 03:49:53;;;;;;;20.60;18.83;;;17.10;99.90;;;;;;5114117;28;20470;-70
2022/06/08 03:52:24;;;;;;;16.50;14.90;;;17.10;99.90;;;;;;5112953;27;20441;-70
2022/06/08 03:54:54;;;;;;;15.87;14.37;;;17.10;99.90;;;;;;5113815;28;20426;-70
2022/06/08 03:57:21;;;;;;;17.17;15.60;;;17.10;99.90;;;;;;5113465;28;20402;-70
2022/06/08 03:59:49;;;;;;;16.80;15.10;;;17.10;99.90;;;;;;5095447;28;20488;-70
2022/06/08 04:02:16;;;;;;;17.33;15.63;;;17.10;99.90;;;;;;5112672;28;20458;-70
2022/06/08 04:04:42;;;;;;;17.97;16.27;;;17.10;99.90;;;;;;5113607;28;20401;-70
2022/06/08 04:07:09;;;;;;;23.33;19.00;;;17.10;99.90;;;;;;5111165;28;20918;-70
2022/06/08 04:09:35;;;;;;;18.50;16.57;;;17.10;99.90;;;;;;5113453;28;21014;-70
2022/06/08 04:12:01;;;;;;;18.03;15.97;;;17.20;99.90;;;;;;5112675;28;20488;-70
2022/06/08 04:14:26;;;;;;;18.37;15.37;;;17.20;99.90;;;;;;5113148;28;20634;-70
2022/06/08 04:16:52;;;;;;;17.00;15.20;;;17.30;99.90;;;;;;5113426;28;20401;-70
2022/06/08 04:19:18;;;;;;;17.23;15.50;;;17.30;99.90;;;;;;5112435;28;20302;-70
2022/06/08 04:21:45;;;;;;;17.50;15.70;;;17.30;99.90;;;;;;5113315;28;20191;-70
2022/06/08 04:24:13;;;;;;;17.80;16.13;;;17.30;99.90;;;;;;5112735;28;20470;-70
2022/06/08 04:26:39;;;;;;;15.93;14.43;;;17.40;99.90;;;;;;5113237;28;20420;-70
2022/06/08 04:29:06;;;;;;;17.67;15.97;;;17.40;99.90;;;;;;5111455;28;20884;-70
2022/06/08 04:31:34;;;;;;;15.93;14.43;;;17.40;99.90;;;;;;5113648;28;20412;-69
2022/06/08 04:34:02;;;;;;;18.27;16.40;;;17.40;99.90;;;;;;5111482;28;20404;-70
2022/06/08 04:36:27;;;;;;;16.60;15.00;;;17.50;99.90;;;;;;5112877;28;20452;-70
2022/06/08 04:38:53;;;;;;;16.67;14.97;;;17.50;99.90;;;;;;5113317;28;20433;-70
2022/06/08 04:41:20;;;;;;;19.10;17.10;;;17.50;99.90;;;;;;5112274;28;20210;-70
2022/06/08 04:43:46;;;;;;;16.37;14.93;;;17.60;99.90;;;;;;5113259;28;20176;-70
2022/06/08 04:46:15;;;;;;;15.63;14.13;;;17.60;99.90;;;;;;5112515;28;20945;-70
2022/06/08 04:48:42;;;;;;;12.90;11.73;;;17.70;99.90;;;;;;5113056;28;20236;-70
2022/06/08 04:51:10;;;;;;;14.27;12.87;;;17.80;99.90;;;;;;5111191;28;20457;-70
2022/06/08 04:53:39;;;;;;;16.07;14.37;;;17.80;99.90;;;;;;5113299;28;20409;-70
2022/06/08 04:56:05;;;;;;;15.53;14.13;;;17.80;99.90;;;;;;5077268;28;20417;-70
2022/06/08 04:58:31;;;;;;;14.70;13.40;;;17.90;99.90;;;;;;5113270;28;20497;-70
2022/06/08 05:00:57;;;;;;;15.00;13.60;;;17.90;99.90;;;;;;5111691;28;20544;-70
2022/06/08 05:03:22;;;;;;;13.70;12.23;;;17.90;99.90;;;;;;5111165;28;20606;-70
2022/06/08 05:05:48;;;;;;;14.53;11.73;;;17.90;99.90;;;;;;5112921;28;20180;-70
2022/06/08 05:08:17;;;;;;;12.17;10.97;;;18.00;99.90;;;;;;5111100;28;20413;-70
2022/06/08 05:10:43;;;;;;;11.63;10.43;;;18.00;99.90;;;;;;5112860;28;20190;-70
2022/06/08 05:13:11;;;;;;;11.43;10.33;;;18.00;99.90;;;;;;5111124;28;20891;-70
2022/06/08 05:15:39;;;;;;;12.00;10.90;;;18.00;99.90;;;;;;5094810;28;20768;-70
2022/06/08 05:18:06;;;;;;;11.97;10.90;;;18.00;99.90;;;;;;5112372;28;20409;-70
2022/06/08 05:20:34;;;;;;;11.80;10.80;;;18.10;99.90;;;;;;5116887;28;20469;-70
2022/06/08 05:23:00;;;;;;;12.97;11.93;;;18.10;99.90;;;;;;5116678;27;20405;-70
2022/06/08 05:25:33;;;;;;;11.67;10.67;;;18.10;99.90;;;;;;5116635;28;20489;-71
2022/06/08 05:27:59;;;;;;;10.10;9.10;;;18.10;99.90;;;;;;5116401;28;20803;-70
2022/06/08 05:30:26;;;;;;;9.87;9.17;;;18.20;99.90;;;;;;5097324;28;20452;-70
2022/06/08 05:32:52;;;;;;;9.27;8.20;;;18.30;99.90;;;;;;5116192;28;20893;-70
2022/06/08 05:35:19;;;;;;;9.80;9.10;;;18.30;99.90;;;;;;5115830;28;20398;-70
2022/06/08 05:37:46;;;;;;;9.00;8.30;;;18.40;99.90;;;;;;5116500;28;20455;-71
2022/06/08 05:40:12;;;;;;;11.17;10.37;;;18.40;99.90;;;;;;5115649;28;20468;-70
2022/06/08 05:42:38;;;;;;;10.50;9.80;;;18.50;99.90;;;;;;5116099;28;20872;-70
2022/06/08 05:45:05;;;;;;;10.27;9.27;;;18.50;99.90;;;;;;5115727;28;20417;-71
2022/06/08 05:47:31;;;;;;;9.90;9.10;;;18.50;99.90;;;;;;5116110;28;20405;-70
2022/06/08 05:49:57;;;;;;;8.10;7.33;;;18.60;99.90;;;;;;5114867;28;20538;-70
2022/06/08 05:52:23;;;;;;;9.43;8.63;;;18.50;99.90;;;;;;5115512;28;20176;-70
2022/06/08 05:54:49;;;;;;;8.30;7.53;;;18.50;99.90;;;;;;5116711;28;20401;-70
2022/06/08 05:57:15;;;;;;;8.73;8.10;;;18.60;99.90;;;;;;5115751;28;20416;-70
2022/06/08 05:59:41;;;;;;;8.23;7.60;;;18.60;99.90;;;;;;5115831;28;20559;-70
2022/06/08 06:02:10;;;;;;;8.20;7.60;;;18.70;99.90;;;;;;5115252;28;20416;-70
2022/06/08 06:04:36;;;;;;;9.60;8.80;;;18.70;99.90;;;;;;5115842;28;20503;-70
2022/06/08 06:07:02;;;;;;;7.40;6.70;;;18.70;99.90;;;;;;5115414;28;20418;-70
2022/06/08 06:09:27;;;;;;;7.23;6.80;;;18.80;99.90;;;;;;5115119;28;20164;-70
2022/06/08 06:11:53;;;;;;;5.50;5.10;;;18.80;99.90;;;;;;5115636;28;20410;-70
2022/06/08 06:14:19;;;;;;;8.57;8.07;;;18.90;99.90;;;;;;5115017;28;20168;-71
2022/06/08 06:16:45;;;;;;;6.77;6.37;;;18.80;99.90;;;;;;5115641;28;20164;-71
2022/06/08 06:19:11;;;;;;;5.60;5.20;;;18.80;99.90;;;;;;5114598;28;20928;-71
2022/06/08 06:21:37;;;;;;;6.00;5.17;;;18.80;99.90;;;;;;5115464;28;20214;-70
2022/06/08 06:24:07;;;;;;;5.80;5.50;;;19.00;99.90;;;;;;5115530;28;20445;-70
2022/06/08 06:26:33;;;;;;;5.10;4.90;;;19.00;99.90;;;;;;5115535;28;20439;-70
2022/06/08 06:28:59;;;;;;;5.00;4.60;;;18.90;99.90;;;;;;5114898;28;20449;-70
2022/06/08 06:31:47;;;;;;;4.40;4.20;;;18.80;99.90;;;;;;5113408;28;20950;-71
2022/06/08 06:34:15;;;;;;;4.43;4.23;;;19.00;99.90;;;;;;5114869;28;20159;-70
2022/06/08 06:36:41;;;;;;;4.43;4.23;;;19.00;99.90;;;;;;5113882;28;20413;-71
2022/06/08 06:39:07;;;;;;;3.93;3.70;;;19.10;99.90;;;;;;5114490;28;20741;-71
2022/06/08 06:41:33;;;;;;;5.30;5.10;;;19.20;99.90;;;;;;5114762;28;20539;-70
2022/06/08 06:43:59;;;;;;;5.70;5.40;;;19.30;99.90;;;;;;5115060;28;20949;-70
2022/06/08 06:46:25;;;;;;;6.10;5.70;;;19.30;99.90;;;;;;5113183;28;20428;-70
2022/06/08 06:48:51;;;;;;;6.80;6.60;;;19.40;99.90;;;;;;5113485;28;20502;-70
2022/06/08 06:51:17;;;;;;;5.37;5.17;;;19.40;99.90;;;;;;5114263;28;20447;-71
2022/06/08 06:53:43;;;;;;;4.50;4.20;;;19.50;99.90;;;;;;5114970;28;20160;-70
2022/06/08 06:56:10;;;;;;;4.77;4.57;;;19.50;99.90;;;;;;5114273;28;20473;-71
2022/06/08 06:58:36;;;;;;;6.07;5.77;;;19.50;99.90;;;;;;5114808;28;20896;-70
2022/06/08 07:01:03;;;;;;;3.67;3.47;;;19.50;99.90;;;;;;5113481;28;20456;-71
2022/06/08 07:03:30;;;;;;;4.37;4.07;;;19.60;99.90;;;;;;5071123;28;20891;-70
2022/06/08 07:05:56;;;;;;;5.30;4.17;;;19.70;99.90;;;;;;5071668;28;20407;-70
2022/06/08 07:08:22;;;;;;;4.07;3.87;;;19.60;99.90;;;;;;5071082;28;20400;-70
2022/06/08 07:13:33;;;;;;;4.67;4.37;;;19.70;99.90;;;;;;5071677;28;20518;-70
2022/06/08 07:15:59;;;;;;;4.60;4.30;;;19.70;99.90;;;;;;5071410;28;20418;-71
2022/06/08 07:18:25;;;;;;;4.63;4.43;;;19.70;99.90;;;;;;5070607;28;20464;-70
2022/06/08 07:20:51;;;;;;;4.30;4.03;;;19.80;99.90;;;;;;5054643;28;20467;-70
2022/06/08 07:23:17;;;;;;;4.33;4.03;;;19.80;99.90;;;;;;5070748;28;20199;-70
2022/06/08 07:25:42;;;;;;;4.17;3.97;;;19.90;99.90;;;;;;5054558;28;20613;-70
2022/06/08 07:28:08;;;;;;;4.43;4.13;;;19.90;99.90;;;;;;5070718;28;20208;-75
2022/06/08 07:30:34;;;;;;;2.70;2.50;;;20.10;99.90;;;;;;5071303;28;20185;-70
2022/06/08 07:33:00;;;;;;;3.57;3.37;;;20.20;99.90;;;;;;5071101;28;20230;-70
2022/06/08 07:35:25;;;;;;;16.73;5.70;;;20.30;99.90;;;;;;5070571;28;20181;-70
2022/06/08 07:37:51;;;;;;;4.40;4.20;;;20.50;99.90;;;;;;5070986;28;20256;-70
2022/06/08 07:40:17;;;;;;;5.10;4.80;;;20.70;99.90;;;;;;5065237;28;20226;-70
2022/06/08 07:42:42;;;;;;;3.30;3.00;;;20.70;99.90;;;;;;5094456;28;20180;-70
2022/06/08 07:45:10;;;;;;;3.00;2.80;;;20.70;99.90;;;;;;5113835;28;20174;-70
2022/06/08 07:49:36;;;;;;;3.73;3.53;;;20.90;99.90;;;;;;5112493;28;20180;-70
2022/06/08 07:50:22;;;;;;;3.97;3.87;;;21.00;99.90;;;;;;5113054;28;20539;-70
2022/06/08 07:52:48;;;;;;;3.53;3.33;;;21.10;99.90;;;;;;5113803;28;20684;-70
2022/06/08 07:55:14;;;;;;;3.60;3.47;;;21.20;99.90;;;;;;5077095;28;20422;-71
2022/06/08 07:57:39;;;;;;;3.50;3.30;;;21.30;99.90;;;;;;5112595;28;20608;-70
2022/06/08 08:00:06;;;;;;;3.40;3.30;;;21.10;99.90;;;;;;5114025;28;20211;-70
2022/06/08 08:02:32;;;;;;;3.10;3.00;;;20.90;99.90;;;;;;5113092;28;20320;-70
2022/06/08 08:04:58;;;;;;;2.90;2.80;;;20.90;99.90;;;;;;5113287;28;20420;-70
2022/06/08 08:07:23;;;;;;;4.10;3.90;;;21.00;99.90;;;;;;5112981;28;20397;-70
2022/06/08 08:09:49;;;;;;;3.00;2.90;;;21.00;99.90;;;;;;5113483;28;20201;-70
2022/06/08 08:12:15;;;;;;;2.70;2.60;;;21.00;99.90;;;;;;5112669;28;20174;-69
2022/06/08 08:14:41;;;;;;;2.70;2.60;;;21.10;99.90;;;;;;5111560;28;20424;-70
2022/06/08 08:17:07;;;;;;;4.10;3.90;;;21.10;99.90;;;;;;5113109;28;20491;-70
2022/06/08 08:19:33;;;;;;;3.03;2.93;;;21.10;99.90;;;;;;5110950;28;20692;-70
2022/06/08 08:21:59;;;;;;;4.13;4.03;;;21.20;99.90;;;;;;5112973;28;20417;-69
2022/06/08 08:24:25;;;;;;;4.07;3.90;;;21.20;99.90;;;;;;5112384;28;20173;-70
2022/06/08 08:26:51;;;;;;;3.67;3.47;;;21.20;99.90;;;;;;5113197;28;20167;-70
2022/06/08 08:29:18;;;;;;;3.20;3.10;;;21.20;99.90;;;;;;5112749;28;20171;-70
2022/06/08 08:31:44;;;;;;;2.93;2.47;;;21.20;99.90;;;;;;5113365;28;20401;-70
2022/06/08 08:34:10;;;;;;;4.70;4.60;;;21.30;99.90;;;;;;5112997;28;20402;-71
2022/06/08 08:36:36;;;;;;;4.10;3.90;;;21.50;99.90;;;;;;5076643;28;20732;-70
2022/06/08 08:39:05;;;;;;;3.27;3.07;;;21.60;99.90;;;;;;5112905;28;20437;-70
2022/06/08 08:44:38;;;;;;;2.70;2.53;;;21.80;99.10;;;;;;5112222;28;20401;-70
2022/06/08 08:47:34;;;;;;;2.40;2.30;;;21.50;98.10;;;;;;5112532;28;20485;-70
2022/06/08 08:50:23;;;;;;;2.63;2.53;;;21.40;98.80;;;;;;5112708;28;20473;-70
2022/06/08 08:52:50;;;;;;;2.97;2.80;;;21.40;99.40;;;;;;5114522;28;20917;-70
2022/06/08 08:55:37;;;;;;;4.30;4.10;;;21.50;98.50;;;;;;5116327;28;20469;-71
2022/06/08 08:58:18;;;;;;;2.80;2.60;;;21.60;99.50;;;;;;5115899;28;20900;-70
2022/06/08 09:01:00;;;;;;;2.20;2.10;;;21.60;98.80;;;;;;5116860;28;20490;-70
2022/06/08 09:03:30;;;;;;;2.43;2.33;;;21.60;97.60;;;;;;5116753;28;20389;-70
2022/06/08 09:06:12;;;;;;;2.93;2.83;;;21.60;96.50;;;;;;5117116;28;20408;-70
2022/06/08 09:08:39;;;;;;;2.73;2.53;;;21.80;97.10;;;;;;5116392;28;20400;-70
2022/06/08 09:11:18;;;;;;;2.17;2.17;;;21.90;97.00;;;;;;5116545;28;20888;-70
2022/06/08 09:13:49;;;;;;;5.27;5.07;;;22.10;96.10;;;;;;5116804;28;20445;-70
2022/06/08 09:16:37;;;;;;;2.77;2.63;;;22.30;96.30;;;;;;5116240;28;20451;-72
2022/06/08 09:19:25;;;;;;;3.23;3.13;;;22.40;95.40;;;;;;5116190;28;20986;-70
2022/06/08 09:21:55;;;;;;;2.70;2.60;;;22.50;95.70;;;;;;5116633;28;20833;-70
2022/06/08 09:24:28;;;;;;;4.33;3.10;;;22.60;96.00;;;;;;5114878;28;20504;-71
2022/06/08 09:27:11;;;;;;;2.97;2.70;;;22.80;97.60;;;;;;5116557;28;20417;-70
2022/06/08 09:30:07;;;;;;;3.37;3.17;;;22.80;95.10;;;;;;5115830;28;20425;-71
2022/06/08 09:32:44;;;;;;;3.30;3.10;;;22.80;93.90;;;;;;5115480;28;20423;-70
2022/06/08 09:35:35;;;;;;;4.80;4.60;;;22.80;95.80;;;;;;5116401;28;20413;-71
2022/06/08 09:38:11;;;;;;;3.00;2.90;;;22.80;95.30;;;;;;5116247;28;20425;-71
2022/06/08 09:40:54;;;;;;;2.60;2.50;;;22.90;96.00;;;;;;5115625;28;20446;-71
2022/06/08 09:43:26;;;;;;;4.63;4.43;;;23.00;95.40;;;;;;5115618;28;20485;-71
2022/06/08 09:45:57;;;;;;;3.97;3.80;;;23.00;94.00;;;;;;5116242;28;20416;-71
2022/06/08 09:51:45;;;;;;;3.17;2.97;;;23.20;93.40;;;;;;5114000;28;20444;-71
2022/06/08 09:54:23;;;;;;;5.47;5.17;;;23.20;92.30;;;;;;5116420;28;20405;-71
2022/06/08 09:57:08;;;;;;;3.93;3.73;;;23.30;93.40;;;;;;5115670;28;20934;-70
2022/06/08 09:59:49;;;;;;;3.57;3.47;;;23.40;92.30;;;;;;5115205;28;20550;-70
2022/06/08 10:02:38;;;;;;;3.53;3.33;;;23.50;92.60;;;;;;5116135;28;20401;-70
2022/06/08 10:05:12;;;;;;;3.70;2.70;;;23.80;93.20;;;;;;5114919;28;20394;-70
2022/06/08 10:08:04;;;;;;;3.00;2.80;;;23.80;91.20;;;;;;5115275;28;20616;-70
2022/06/08 10:10:44;;;;;;;3.30;3.10;;;23.90;90.30;;;;;;5114962;28;20434;-70
2022/06/08 10:13:38;;;;;;;3.10;3.00;;;23.40;86.80;;;;;;5115558;28;20401;-70
2022/06/08 10:16:21;;;;;;;3.03;2.83;;;23.30;90.00;;;;;;5108376;28;20478;-70
2022/06/08 10:19:06;;;;;;;3.83;3.70;;;23.20;89.10;;;;;;5115095;28;20449;-70
2022/06/08 10:21:38;;;;;;;3.80;3.60;;;23.00;90.60;;;;;;5114937;28;20543;-70
2022/06/08 10:24:23;;;;;;;4.40;4.10;;;23.00;89.70;;;;;;5115610;28;20409;-70
2022/06/08 10:27:09;;;;;;;7.23;4.00;;;23.20;90.10;;;;;;5115665;28;20397;-70
2022/06/08 10:29:59;;;;;;;3.07;2.87;;;23.20;85.00;;;;;;5114771;28;20404;-70
2022/06/08 10:32:34;;;;;;;4.30;4.00;;;23.00;85.80;;;;;;5107054;28;20443;-70
2022/06/08 10:35:12;;;;;;;2.90;2.67;;;23.00;85.80;;;;;;5114846;28;20397;-70
2022/06/08 10:37:40;;;;;;;3.43;3.30;;;23.00;87.20;;;;;;5114636;28;20400;-70
2022/06/08 10:40:09;;;;;;;3.60;3.50;;;22.70;86.90;;;;;;5115249;28;20452;-70
2022/06/08 10:42:44;;;;;;;2.63;2.43;;;22.70;89.20;;;;;;5114556;28;20755;-71
2022/06/08 10:45:24;;;;;;;2.87;2.67;;;22.80;90.30;;;;;;5115182;28;20436;-71
2022/06/08 10:47:57;;;;;;;3.20;3.00;;;22.90;91.10;;;;;;5114853;28;20414;-70
2022/06/08 10:51:24;;;;;;;4.90;4.53;;;23.00;91.20;;;;;;5095162;28;20428;-71
2022/06/08 10:56:36;;;;;;;3.53;3.33;;;23.10;91.90;;;;;;5114630;28;20404;-71
2022/06/08 10:59:08;;;;;;;3.30;3.10;;;23.20;91.70;;;;;;5115076;28;20417;-70
2022/06/08 11:02:01;;;;;;;3.13;3.03;;;23.20;92.10;;;;;;5114166;28;20203;-71
2022/06/08 11:04:27;;;;;;;5.70;5.27;;;23.30;92.60;;;;;;5114107;28;20427;-71
2022/06/08 11:06:55;;;;;;;2.90;2.80;;;23.40;91.60;;;;;;5114716;28;20417;-70
2022/06/08 11:09:33;;;;;;;3.40;3.20;;;23.40;91.70;;;;;;5114629;28;20194;-70
2022/06/08 11:12:11;;;;;;;4.20;3.90;;;23.30;91.70;;;;;;5113643;28;20871;-70
2022/06/08 11:14:50;;;;;;;3.20;3.10;;;23.30;91.40;;;;;;5113831;28;20417;-70
2022/06/08 11:17:30;;;;;;;3.27;3.00;;;23.30;92.00;;;;;;5114443;28;20409;-71
2022/06/08 11:20:03;;;;;;;3.50;3.20;;;23.20;92.40;;;;;;5114223;28;20473;-71
2022/06/08 11:22:45;;;;;;;3.37;2.83;;;23.00;91.70;;;;;;5113852;28;20749;-71
2022/06/08 11:25:17;;;;;;;3.67;3.47;;;22.80;92.60;;;;;;5114385;28;20406;-71
2022/06/08 11:27:44;;;;;;;3.80;3.50;;;22.60;92.50;;;;;;5113735;28;20397;-70
2022/06/08 11:30:22;;;;;;;3.57;3.37;;;22.30;92.80;;;;;;5114265;28;20416;-70
2022/06/08 11:32:51;;;;;;;2.97;2.77;;;22.00;93.40;;;;;;5114158;28;20178;-70
2022/06/08 11:35:46;;;;;;;2.73;2.53;;;21.80;93.40;;;;;;5114154;28;20521;-70
2022/06/08 11:38:37;;;;;;;3.40;3.10;;;21.60;93.40;;;;;;5114449;28;20408;-70
2022/06/08 11:41:33;;;;;;;3.10;2.73;;;21.50;94.90;;;;;;5114097;28;20628;-70
2022/06/08 11:44:20;;;;;;;3.63;3.33;;;21.50;95.90;;;;;;5114250;28;20393;-71
2022/06/08 11:46:51;;;;;;;3.40;3.20;;;21.10;95.50;;;;;;5112991;28;20779;-70
2022/06/08 11:49:32;;;;;;;3.10;3.00;;;21.00;96.90;;;;;;5114281;28;20410;-70
2022/06/08 11:51:58;;;;;;;3.23;3.13;;;21.00;96.30;;;;;;5113472;28;20943;-70
2022/06/08 11:54:31;;;;;;;4.30;4.17;;;20.80;96.30;;;;;;5113732;28;20401;-76
2022/06/08 11:57:12;;;;;;;4.70;2.90;;;20.70;96.80;;;;;;5112752;28;20474;-70
2022/06/08 11:59:41;;;;;;;3.80;3.70;;;20.70;97.40;;;;;;5113058;28;20405;-70
2022/06/08 12:02:24;;;;;;;3.10;2.80;;;20.60;97.80;;;;;;5113679;28;20414;-70
2022/06/08 12:04:56;;;;;;;4.03;3.83;;;20.60;99.90;;;;;;5113988;28;20876;-70
2022/06/08 12:07:47;;;;;;;3.30;3.10;;;20.60;99.50;;;;;;5113528;28;20451;-70
2022/06/08 12:10:20;;;;;;;3.20;3.00;;;20.50;99.80;;;;;;5113601;28;20401;-70
2022/06/08 12:12:48;;;;;;;4.43;4.00;;;20.50;99.90;;;;;;5112687;28;20397;-70
2022/06/08 12:15:26;;;;;;;4.10;3.90;;;20.50;99.90;;;;;;5113431;28;20911;-71
2022/06/08 12:17:52;;;;;;;5.80;5.40;;;20.60;99.90;;;;;;5112897;28;20413;-71
2022/06/08 12:20:35;;;;;;;2.50;2.30;;;20.70;99.90;;;;;;5112752;28;20546;-70
2022/06/08 12:23:01;;;;;;;3.43;3.20;;;20.80;99.90;;;;;;5113616;28;20469;-70
2022/06/08 12:25:29;;;;;;;3.63;3.43;;;20.80;99.90;;;;;;5112792;28;20906;-71
2022/06/08 12:28:02;;;;;;;3.33;2.40;;;20.80;99.90;;;;;;5111633;28;20445;-70
2022/06/08 12:30:56;;;;;;;5.30;4.90;;;20.90;99.90;;;;;;5111449;28;20448;-71
2022/06/08 12:33:26;;;;;;;3.97;3.67;;;20.70;99.90;;;;;;5107445;28;20432;-70
2022/06/08 12:36:31;;;;;;;3.70;3.50;;;20.40;99.90;;;;;;5113398;28;20402;-71
2022/06/08 12:39:10;;;;;;;4.53;4.23;;;20.30;99.90;;;;;;5086922;28;20421;-70
2022/06/08 12:41:54;;;;;;;5.90;5.50;;;20.10;99.90;;;;;;5112623;28;20441;-71
2022/06/08 12:44:23;;;;;;;3.60;3.50;;;20.00;99.90;;;;;;5113213;28;20401;-70
2022/06/08 12:47:11;;;;;;;5.70;3.90;;;20.00;99.90;;;;;;5112555;28;20408;-70
2022/06/08 12:49:43;;;;;;;5.77;5.47;;;20.00;99.90;;;;;;5111707;28;20441;-70
2022/06/08 12:52:20;;;;;;;4.20;4.00;;;20.00;99.90;;;;;;5113073;28;20409;-70
2022/06/08 12:54:46;;;;;;;3.60;3.33;;;19.90;99.90;;;;;;5112578;28;20441;-71
2022/06/08 12:57:16;;;;;;;3.43;2.93;;;19.90;99.90;;;;;;5112987;28;20438;-70
2022/06/08 12:59:43;;;;;;;4.10;3.73;;;19.80;99.90;;;;;;5112134;28;20168;-71
2022/06/08 13:02:18;;;;;;;4.27;3.97;;;19.80;99.90;;;;;;5112967;28;20413;-70
2022/06/08 13:04:44;;;;;;;4.37;3.20;;;19.80;99.90;;;;;;5094258;28;20786;-70
2022/06/08 13:07:14;;;;;;;5.87;5.30;;;19.80;99.90;;;;;;5113019;28;20410;-72
2022/06/08 13:09:40;;;;;;;5.10;3.67;;;19.80;99.90;;;;;;5112263;28;20187;-72
2022/06/08 13:12:08;;;;;;;4.10;3.80;;;19.80;99.90;;;;;;5112967;28;20919;-71
2022/06/08 13:14:34;;;;;;;4.47;3.40;;;19.90;99.90;;;;;;5111992;28;20513;-71
2022/06/08 13:17:00;;;;;;;4.97;3.93;;;19.80;99.90;;;;;;5112787;28;20477;-72
2022/06/08 13:19:26;;;;;;;3.90;3.60;;;19.80;99.90;;;;;;5112784;28;20230;-71
2022/06/08 13:21:52;;;;;;;4.13;3.80;;;19.80;99.90;;;;;;5112106;28;20453;-72